Aérodrome :
LOGIN :

S'inscrire | Disclaimer

   EN    FR    IT 

 










Légende :    VFR   VFR Marginal   IFR   IFR Intensif   IFR Très Intensif
Visi : 
Plafond : 
>= 8 km
>= 3000ft
5 à 8 km
1000 à 3000 ft
1500m à 5 km
500 à 1000 ft
800 à 1500m
200 à 500 ft
< 800m
< 200 ft
Symboles :   Orages  Brouillard  Fortes neiges  Fortes précipitations  Vent > 20 kt
SIGMETs :   Divers  Orages  Givrage  Turbulence  Onde Orograph.  Cendres Volcan.







- Altitude de l'aérodrome : 82 ft
- Code IATA : QIE
- Voir les cartes d'approche


LFMI - Istres

DERNIER METAR :
  • 260100Z AUTO 34016KT CAVOK 01/M10 Q1010 TEMPO 36018G28KT

METARs EXPIRÉS :
  • 260030Z AUTO 34018KT 9999 FEW038 01/M10 Q1010 TEMPO 36018G28KT
  • 260000Z AUTO 35016KT 9999 BKN038 01/M09 Q1010 NOSIG
  • 252330Z AUTO 34016KT 9999 BKN038 02/M09 Q1010 NOSIG
  • 252300Z AUTO 35016KT 9999 BKN039 02/M08 Q1009 TEMPO 35027G37KT
  • 252230Z AUTO 35019G30KT 9999 BKN040 02/M08 Q1009 BECMG 36015KT

TAF TAF LFMI
Valide du 25 à 21h jusqu'au 26 à 21h UTC


252000Z 2521/2621 34025KT CAVOK
PROB40
TEMPO 2521/2524 35027G37KT BKN036
BECMG 2600/2602 36015KT
TEMPO 2602/2607 36018G28KT
BECMG 2607/2609 35022KT
TEMPO 2609/2615 35020G30KT
BECMG 2615/2617 34027KT
Pas de NOTAMs connus pour ce terrain.
1 SIGMET publié pour la FIR Marseille (LFMM) :
 
Turbulence forte
LFMM SIGMET 5 VALID 260000/260400 LFPW
LFMM MARSEILLE FIR/UIR SEV TURB FCST WI N4500 E00415 - N4500 E00515 - N4230 E00530 - N4230 E00415 - N4500 E00415 SFC/FL050 STNR NC=



MET'MAP, la Météo Aéronautique d'un coup d'oeil ! - Copyright ORBIFLY Décembre 2007 - Disclaimer

ORBIFLY MET'MAP TEAM :

Programmation & Développement : Alexandra Zaïnal
Conception & Développement : Baudouin d'Aumeries
Co-Programmation & Développement : Marc-Olivier Méhu
Soutien technique & logistique : Manuel Goepfert

Contact : metmap@orbifly.com




SOURCES & CREDITS :

   NOAA